createdAt,value
2022-08-25T00:01:54.234Z,101128.16
2022-08-25T00:04:24.071Z,101130.41
2022-08-25T00:06:53.539Z,101132.59
2022-08-25T00:09:25.157Z,101116.19
2022-08-25T00:11:53.248Z,101126.47
2022-08-25T00:14:28.143Z,101126.63
2022-08-25T00:16:56.117Z,101119.66
2022-08-25T00:19:28.792Z,101133.47
2022-08-25T00:21:56.306Z,101124.94
2022-08-25T00:24:24.717Z,101122.56
2022-08-25T00:26:56.369Z,101123.03
2022-08-25T00:29:28.683Z,101121.31
2022-08-25T00:31:57.957Z,101119.97
2022-08-25T00:34:31.891Z,101122.16
2022-08-25T00:36:58.940Z,101125.25
2022-08-25T00:39:27.607Z,101123.03
2022-08-25T00:41:57.598Z,101129.50
2022-08-25T00:44:28.217Z,101126.94
2022-08-25T00:47:02.497Z,101127.97
2022-08-25T00:49:41.595Z,101126.63
2022-08-25T00:52:08.476Z,101126.94
2022-08-25T00:54:49.956Z,101120.63
2022-08-25T00:57:34.032Z,101126.44
2022-08-25T01:00:12.898Z,101121.31
2022-08-25T01:02:40.459Z,101129.66
2022-08-25T01:05:08.183Z,101135.44
2022-08-25T01:07:37.179Z,101129.47
2022-08-25T01:10:07.829Z,101131.34
2022-08-25T01:12:37.546Z,101129.66
2022-08-25T01:15:11.670Z,101127.06
2022-08-25T01:17:54.744Z,101125.38
2022-08-25T01:20:29.383Z,101120.78
2022-08-25T01:22:58.298Z,101116.16
2022-08-25T01:25:39.615Z,101123.50
2022-08-25T01:28:07.215Z,101120.09
2022-08-25T01:30:35.090Z,101113.09
2022-08-25T01:33:07.806Z,101116.84
2022-08-25T01:35:36.212Z,101127.22
2022-08-25T01:38:06.451Z,101129.13
2022-08-25T01:40:36.154Z,101126.72
2022-08-25T01:43:16.176Z,101134.38
2022-08-25T01:45:47.467Z,101133.72
2022-08-25T01:48:15.949Z,101126.53
2022-08-25T01:50:44.250Z,101129.44
2022-08-25T01:53:23.155Z,101134.16
2022-08-25T01:55:54.213Z,101136.19
2022-08-25T01:58:46.570Z,101131.09
2022-08-25T02:01:19.007Z,101129.38
2022-08-25T02:03:49.620Z,101131.56
2022-08-25T02:06:29.804Z,101139.75
2022-08-25T02:09:02.717Z,101136.50
2022-08-25T02:11:29.720Z,101132.09
2022-08-25T02:13:57.111Z,101131.38
2022-08-25T02:16:31.512Z,101133.41
2022-08-25T02:18:59.406Z,101132.75
2022-08-25T02:21:27.088Z,101124.88
2022-08-25T02:23:54.645Z,101135.78
2022-08-25T02:26:22.557Z,101135.94
2022-08-25T02:28:51.606Z,101132.38
2022-08-25T02:31:22.691Z,101126.25
2022-08-25T02:33:51.565Z,101122.50
2022-08-25T02:36:19.856Z,101128.28
2022-08-25T02:38:47.462Z,101123.84
2022-08-25T02:41:25.207Z,101127.56
2022-08-25T02:43:58.948Z,101125.34
2022-08-25T02:46:26.166Z,101128.06
2022-08-25T02:48:53.737Z,101126.53
2022-08-25T02:51:23.809Z,101119.53
2022-08-25T02:53:51.295Z,101120.88
2022-08-25T02:56:19.845Z,101126.81
2022-08-25T02:58:47.828Z,101121.00
2022-08-25T03:01:16.367Z,101122.16
2022-08-25T03:03:46.135Z,101125.06
2022-08-25T03:06:16.394Z,101123.53
2022-08-25T03:08:44.611Z,101118.41
2022-08-25T03:11:12.370Z,101122.28
2022-08-25T03:13:39.788Z,101122.63
2022-08-25T03:16:11.021Z,101123.78
2022-08-25T03:18:40.798Z,101123.94
2022-08-25T03:21:09.367Z,101120.53
2022-08-25T03:23:36.313Z,101118.81
2022-08-25T03:26:21.970Z,101123.41
2022-08-25T03:28:49.057Z,101117.25
2022-08-25T03:31:16.257Z,101117.09
2022-08-25T03:33:43.556Z,101107.91
2022-08-25T03:36:13.856Z,101116.78
2022-08-25T03:38:42.012Z,101106.91
2022-08-25T03:41:32.641Z,101117.09
2022-08-25T03:44:01.302Z,101106.03
2022-08-25T03:46:35.709Z,101108.75
2022-08-25T03:49:05.217Z,101109.63
2022-08-25T03:51:37.607Z,101107.06
2022-08-25T03:54:05.760Z,101107.38
2022-08-25T03:56:33.387Z,101112.81
2022-08-25T03:59:01.331Z,101101.94
2022-08-25T04:01:29.056Z,101103.63
2022-08-25T04:03:56.302Z,101108.22
2022-08-25T04:06:23.619Z,101101.22
2022-08-25T04:08:52.882Z,101106.69
2022-08-25T04:11:23.198Z,101109.41
2022-08-25T04:13:52.042Z,101104.44
2022-08-25T04:17:02.212Z,101104.06
2022-08-25T04:19:29.367Z,101109.84
2022-08-25T04:21:57.341Z,101118.19
2022-08-25T04:24:25.152Z,101117.63
2022-08-25T04:26:53.223Z,101122.38
2022-08-25T04:29:23.980Z,101122.69
2022-08-25T04:31:53.199Z,101121.16
2022-08-25T04:34:30.289Z,101119.31
2022-08-25T04:37:01.312Z,101115.88
2022-08-25T04:39:28.961Z,101115.19
2022-08-25T04:41:56.405Z,101119.22
2022-08-25T04:44:23.711Z,101122.25
2022-08-25T04:46:50.888Z,101135.03
2022-08-25T04:49:18.542Z,101131.63
2022-08-25T04:51:46.024Z,101119.00
2022-08-25T04:54:21.908Z,101128.19
2022-08-25T04:56:54.563Z,101128.19
2022-08-25T04:59:30.527Z,101124.63
2022-08-25T05:02:03.332Z,101121.19
2022-08-25T05:04:33.080Z,101129.22
2022-08-25T05:07:01.317Z,101118.47
2022-08-25T05:09:29.187Z,101124.94
2022-08-25T05:12:04.192Z,101124.09
2022-08-25T05:14:32.489Z,101123.06
2022-08-25T05:16:59.773Z,101127.34
2022-08-25T05:19:27.315Z,101127.03
2022-08-25T05:21:54.644Z,101115.28
2022-08-25T05:25:26.320Z,101112.41
2022-08-25T05:27:53.545Z,101100.66
2022-08-25T05:30:20.744Z,101096.06
2022-08-25T05:32:47.953Z,101102.03
2022-08-25T05:35:16.261Z,101107.16
2022-08-25T05:37:43.674Z,101108.56
2022-08-25T05:40:11.708Z,101098.19
2022-08-25T05:42:40.529Z,101100.59
2022-08-25T05:45:09.905Z,101098.41
2022-08-25T05:47:44.443Z,101092.63
2022-08-25T05:50:12.432Z,101091.47
2022-08-25T05:52:39.824Z,101080.56
2022-08-25T05:55:07.479Z,101084.00
2022-08-25T05:57:35.933Z,101089.13
2022-08-25T06:00:09.163Z,101089.47
2022-08-25T06:02:43.882Z,101084.75
2022-08-25T06:05:16.309Z,101083.41
2022-08-25T06:07:45.157Z,101085.97
2022-08-25T06:10:13.710Z,101081.03
2022-08-25T06:12:46.494Z,101086.22
2022-08-25T06:15:17.459Z,101082.31
2022-08-25T06:17:44.722Z,101073.78
2022-08-25T06:20:22.130Z,101076.03
2022-08-25T06:22:54.740Z,101078.56
2022-08-25T06:25:24.873Z,101071.81
2022-08-25T06:27:52.195Z,101066.03
2022-08-25T06:30:25.734Z,101063.81
2022-08-25T06:32:56.002Z,101068.06
2022-08-25T06:36:50.364Z,101065.91
2022-08-25T06:39:17.540Z,101063.84
2022-08-25T06:41:44.819Z,101066.22
2022-08-25T06:44:12.650Z,101066.94
2022-08-25T06:46:39.728Z,101070.31
2022-08-25T06:49:09.503Z,101066.28
2022-08-25T06:51:38.399Z,101075.13
2022-08-25T06:54:07.994Z,101063.03
2022-08-25T06:56:35.016Z,101065.44
2022-08-25T06:59:04.714Z,101070.56
2022-08-25T07:01:32.675Z,101073.78
2022-08-25T07:04:02.943Z,101072.44
2022-08-25T07:06:35.370Z,101063.78
2022-08-25T07:12:06.380Z,101063.66
2022-08-25T07:14:33.464Z,101067.03
2022-08-25T07:17:00.916Z,101060.25
2022-08-25T07:19:28.412Z,101066.22
2022-08-25T07:21:59.245Z,101066.72
2022-08-25T07:24:26.404Z,101060.94
2022-08-25T07:26:53.656Z,101064.00
2022-08-25T07:29:31.718Z,101056.31
2022-08-25T07:32:02.595Z,101067.59
2022-08-25T07:34:52.321Z,101062.63
2022-08-25T07:40:18.300Z,101057.84
2022-08-25T07:42:46.729Z,101054.63
2022-08-25T07:45:17.304Z,101053.91
2022-08-25T07:47:51.592Z,101051.53
2022-08-25T07:50:19.868Z,101050.00
2022-08-25T07:52:53.931Z,101059.41
2022-08-25T07:55:28.151Z,101054.28
2022-08-25T07:57:57.499Z,101057.34
2022-08-25T08:00:27.839Z,101066.69
2022-08-25T08:02:55.609Z,101059.53
2022-08-25T08:05:24.237Z,101057.13
2022-08-25T08:07:53.071Z,101051.81
2022-08-25T08:13:10.340Z,101064.91
2022-08-25T08:15:38.036Z,101069.69
2022-08-25T08:19:02.798Z,101062.81
2022-08-25T08:21:35.086Z,101057.84
2022-08-25T08:24:05.084Z,101059.75
2022-08-25T08:26:57.411Z,101063.47
2022-08-25T08:29:25.301Z,101072.84
2022-08-25T08:31:53.406Z,101071.09
2022-08-25T08:34:24.807Z,101065.06
2022-08-25T08:36:53.048Z,101072.22
2022-08-25T08:39:20.282Z,101065.69
2022-08-25T08:42:11.287Z,101068.75
2022-08-25T08:44:45.287Z,101071.81
2022-08-25T08:47:40.177Z,101064.75
2022-08-25T08:50:38.177Z,101066.75
2022-08-25T08:53:34.107Z,101061.97
2022-08-25T08:56:07.574Z,101075.44
2022-08-25T08:58:49.905Z,101065.66
2022-08-25T09:01:28.515Z,101072.94
2022-08-25T09:04:20.327Z,101065.69
2022-08-25T09:06:52.287Z,101063.28
2022-08-25T09:09:30.962Z,101053.75
2022-08-25T09:12:12.273Z,101058.88
2022-08-25T09:14:55.054Z,101048.72
2022-08-25T09:17:57.990Z,101051.72
2022-08-25T09:20:47.339Z,101038.00
2022-08-25T09:23:49.574Z,101035.34
2022-08-25T09:27:45.402Z,101046.03
2022-08-25T09:30:19.302Z,101039.44
2022-08-25T09:33:02.156Z,101036.41
2022-08-25T09:35:35.007Z,101038.19
2022-08-25T09:38:08.984Z,101033.84
2022-08-25T09:40:42.575Z,101035.63
2022-08-25T09:43:19.363Z,101024.94
2022-08-25T09:46:10.811Z,101026.56
2022-08-25T09:48:48.441Z,101023.50
2022-08-25T09:51:42.766Z,101025.31
2022-08-25T09:54:13.108Z,101023.47
2022-08-25T09:57:02.041Z,101016.84
2022-08-25T09:59:36.484Z,101012.44
2022-08-25T10:02:29.838Z,101006.19
2022-08-25T10:04:57.382Z,101002.66
2022-08-25T10:07:32.309Z,101004.84
2022-08-25T10:10:03.250Z,101007.22
2022-08-25T10:12:42.458Z,101003.69
2022-08-25T10:15:16.270Z,101003.53
2022-08-25T10:18:25.889Z,100999.38
2022-08-25T10:21:13.625Z,100989.78
2022-08-25T10:23:55.866Z,100989.63
2022-08-25T10:27:00.260Z,100988.41
2022-08-25T10:29:34.746Z,100980.25
2022-08-25T10:32:27.703Z,100978.22
2022-08-25T10:39:03.010Z,100973.41
2022-08-25T10:41:53.485Z,100964.19
2022-08-25T10:45:25.521Z,100959.75
2022-08-25T10:47:58.710Z,100953.25
2022-08-25T10:50:54.769Z,100956.22
2022-08-25T10:53:56.312Z,100949.91
2022-08-25T10:56:32.541Z,100948.06
2022-08-25T10:59:23.956Z,100938.56
2022-08-25T11:02:34.921Z,100934.13
2022-08-25T11:05:29.066Z,100927.59
2022-08-25T11:08:33.797Z,100924.84
2022-08-25T11:11:40.374Z,100928.47
2022-08-25T11:14:34.591Z,100920.00
2022-08-25T11:17:18.347Z,100913.50
2022-08-25T11:19:49.328Z,100914.78
2022-08-25T11:22:46.519Z,100912.22
2022-08-25T11:25:46.082Z,100906.94
2022-08-25T11:28:15.806Z,100901.44
2022-08-25T11:30:44.627Z,100906.09
2022-08-25T11:33:19.572Z,100903.97
2022-08-25T11:35:54.178Z,100900.13
2022-08-25T11:38:36.973Z,100896.97
2022-08-25T11:41:18.551Z,100890.41
2022-08-25T11:44:06.896Z,100891.22
2022-08-25T11:46:55.141Z,100889.75
2022-08-25T11:49:37.931Z,100884.00
2022-08-25T11:52:38.282Z,100878.25
2022-08-25T11:55:16.496Z,100886.91
2022-08-25T11:57:51.553Z,100883.03
2022-08-25T12:01:54.469Z,100884.53
2022-08-25T12:04:44.992Z,100882.13
2022-08-25T12:07:22.831Z,100879.59
2022-08-25T12:09:51.081Z,100889.50
2022-08-25T12:12:42.820Z,100882.47
2022-08-25T12:15:18.978Z,100879.06
2022-08-25T12:18:13.589Z,100878.59
2022-08-25T12:21:13.516Z,100875.78
2022-08-25T12:24:11.934Z,100872.34
2022-08-25T12:26:47.824Z,100875.09
2022-08-25T12:29:22.680Z,100879.75
2022-08-25T12:32:23.265Z,100880.53
2022-08-25T12:35:09.137Z,100872.84
2022-08-25T12:37:58.397Z,100869.88
2022-08-25T12:40:33.470Z,100864.38
2022-08-25T12:43:10.899Z,100861.31
2022-08-25T12:45:43.411Z,100863.78
2022-08-25T12:48:29.264Z,100856.88
2022-08-25T12:51:20.535Z,100851.13
2022-08-25T12:53:53.487Z,100849.97
2022-08-25T12:56:39.578Z,100838.09
2022-08-25T12:59:22.639Z,100832.94
2022-08-25T13:02:36.728Z,100840.13
2022-08-25T13:05:46.461Z,100835.75
2022-08-25T13:09:01.292Z,100830.13
2022-08-25T13:11:43.316Z,100827.75
2022-08-25T13:14:41.671Z,100834.75
2022-08-25T13:17:25.216Z,100838.50
2022-08-25T13:19:52.322Z,100834.63
2022-08-25T13:22:21.586Z,100835.38
2022-08-25T13:24:51.220Z,100833.22
2022-08-25T13:27:25.463Z,100828.66
2022-08-25T13:29:58.236Z,100822.91
2022-08-25T13:32:35.330Z,100819.53
2022-08-25T13:35:20.974Z,100810.09
2022-08-25T13:37:49.601Z,100808.75
2022-08-25T13:40:33.844Z,100800.16
2022-08-25T13:43:05.781Z,100801.16
2022-08-25T13:45:45.466Z,100801.41
2022-08-25T13:48:22.988Z,100793.50
2022-08-25T13:51:09.872Z,100787.50
2022-08-25T13:53:39.072Z,100786.56
2022-08-25T13:56:07.325Z,100781.63
2022-08-25T13:58:44.723Z,100782.00
2022-08-25T14:01:45.841Z,100782.13
2022-08-25T14:04:39.892Z,100774.91
2022-08-25T14:07:21.636Z,100768.66
2022-08-25T14:10:00.139Z,100762.44
2022-08-25T14:12:39.585Z,100766.41
2022-08-25T14:15:32.057Z,100762.06
2022-08-25T14:18:13.825Z,100758.09
2022-08-25T14:20:50.795Z,100757.16
2022-08-25T14:23:31.239Z,100759.53
2022-08-25T14:25:58.606Z,100761.94
2022-08-25T14:28:30.361Z,100757.03
2022-08-25T14:31:03.113Z,100753.56
2022-08-25T14:34:04.677Z,100754.53
2022-08-25T14:36:34.822Z,100753.22
2022-08-25T14:39:08.693Z,100745.38
2022-08-25T14:41:41.033Z,100742.84
2022-08-25T14:44:10.068Z,100741.38
2022-08-25T14:46:43.660Z,100742.47
2022-08-25T14:49:24.702Z,100737.16
2022-08-25T14:51:52.655Z,100729.69
2022-08-25T14:54:23.756Z,100729.47
2022-08-25T14:56:51.554Z,100733.56
2022-08-25T14:59:19.026Z,100730.31
2022-08-25T15:01:47.275Z,100724.88
2022-08-25T15:04:22.481Z,100729.44
2022-08-25T15:06:56.721Z,100724.88
2022-08-25T15:09:25.394Z,100719.22
2022-08-25T15:12:00.913Z,100717.03
2022-08-25T15:14:28.874Z,100714.13
2022-08-25T15:17:02.334Z,100713.38
2022-08-25T15:19:29.833Z,100706.38
2022-08-25T15:21:58.030Z,100704.09
2022-08-25T15:24:28.604Z,100705.88
2022-08-25T15:26:59.656Z,100708.28
2022-08-25T15:29:30.174Z,100697.09
2022-08-25T15:32:00.490Z,100695.28
2022-08-25T15:34:28.830Z,100695.97
2022-08-25T15:37:08.617Z,100693.47
2022-08-25T15:39:37.911Z,100696.94
2022-08-25T15:42:07.079Z,100687.41
2022-08-25T15:44:36.136Z,100691.97
2022-08-25T15:47:05.048Z,100685.19
2022-08-25T15:49:32.403Z,100681.22
2022-08-25T15:52:00.378Z,100681.91
2022-08-25T15:54:29.026Z,100680.47
2022-08-25T15:56:58.668Z,100682.59
2022-08-25T15:59:28.379Z,100676.72
2022-08-25T16:01:56.748Z,100682.47
2022-08-25T16:04:28.322Z,100679.09
2022-08-25T16:06:56.073Z,100680.78
2022-08-25T16:09:23.752Z,100676.81
2022-08-25T16:11:56.606Z,100669.59
2022-08-25T16:14:26.361Z,100672.38
2022-08-25T16:16:58.233Z,100678.09
2022-08-25T16:19:28.528Z,100672.81
2022-08-25T16:21:55.963Z,100669.44
2022-08-25T16:24:24.397Z,100674.97
2022-08-25T16:26:52.721Z,100665.84
2022-08-25T16:29:23.026Z,100663.31
2022-08-25T16:31:54.880Z,100654.41
2022-08-25T16:34:24.440Z,100659.31
2022-08-25T16:36:53.314Z,100659.56
2022-08-25T16:39:23.835Z,100657.28
2022-08-25T16:41:53.244Z,100656.66
2022-08-25T16:44:22.898Z,100649.66
2022-08-25T16:46:54.670Z,100650.38
2022-08-25T16:49:24.195Z,100644.44
2022-08-25T16:51:57.448Z,100645.75
2022-08-25T16:54:44.543Z,100647.38
2022-08-25T16:57:12.160Z,100632.94
2022-08-25T16:59:39.654Z,100641.22
2022-08-25T17:02:07.166Z,100644.44
2022-08-25T17:04:34.518Z,100640.47
2022-08-25T17:07:02.144Z,100636.50
2022-08-25T17:09:30.689Z,100635.03
2022-08-25T17:11:57.987Z,100636.56
2022-08-25T17:14:25.397Z,100636.19
2022-08-25T17:16:55.190Z,100632.19
2022-08-25T17:19:23.948Z,100631.81
2022-08-25T17:21:52.433Z,100625.91
2022-08-25T17:24:19.665Z,100633.59
2022-08-25T17:26:50.041Z,100629.53
2022-08-25T17:29:18.465Z,100632.75
2022-08-25T17:31:48.575Z,100628.78
2022-08-25T17:34:16.946Z,100627.31
2022-08-25T17:36:49.528Z,100635.19
2022-08-25T17:39:18.424Z,100630.13
2022-08-25T17:41:46.165Z,100629.16
2022-08-25T17:44:13.713Z,100627.91
2022-08-25T17:46:47.312Z,100632.19
2022-08-25T17:49:18.686Z,100638.59
2022-08-25T17:51:45.655Z,100629.94
2022-08-25T17:54:13.728Z,100635.91
2022-08-25T17:56:41.336Z,100635.97
2022-08-25T17:59:09.304Z,100638.53
2022-08-25T18:01:40.747Z,100636.44
2022-08-25T18:04:17.522Z,100641.16
2022-08-25T18:06:47.552Z,100648.41
2022-08-25T18:09:16.515Z,100649.28
2022-08-25T18:11:45.815Z,100643.84
2022-08-25T18:14:16.445Z,100651.06
2022-08-25T18:16:43.652Z,100653.03
2022-08-25T18:19:12.454Z,100653.91
2022-08-25T18:21:41.702Z,100653.75
2022-08-25T18:24:11.211Z,100659.25
2022-08-25T18:26:38.263Z,100656.31
2022-08-25T18:29:05.850Z,100668.84
2022-08-25T18:31:33.152Z,100674.13
2022-08-25T18:34:00.235Z,100676.72
2022-08-25T18:36:27.712Z,100671.00
2022-08-25T18:39:13.769Z,100670.84
2022-08-25T18:41:42.667Z,100676.13
2022-08-25T18:44:12.349Z,100678.69
2022-08-25T18:46:43.075Z,100676.59
2022-08-25T18:49:15.595Z,100681.69
2022-08-25T18:51:45.143Z,100689.53
2022-08-25T18:54:22.705Z,100687.19
2022-08-25T18:56:53.917Z,100692.03
2022-08-25T18:59:23.625Z,100692.47
2022-08-25T19:01:54.121Z,100688.28
2022-08-25T19:04:28.674Z,100683.41
2022-08-25T19:07:01.214Z,100691.25
2022-08-25T19:09:30.609Z,100690.81
2022-08-25T19:11:58.159Z,100696.75
2022-08-25T19:14:26.468Z,100696.34
2022-08-25T19:16:54.521Z,100701.41
2022-08-25T19:19:23.146Z,100693.78
2022-08-25T19:21:50.963Z,100691.69
2022-08-25T19:24:19.424Z,100698.69
2022-08-25T19:26:46.895Z,100701.03
2022-08-25T19:29:17.811Z,100702.28
2022-08-25T19:31:48.152Z,100706.28
2022-08-25T19:34:22.723Z,100705.88
2022-08-25T19:36:50.955Z,100709.00
2022-08-25T19:39:18.552Z,100709.66
2022-08-25T19:41:46.707Z,100708.59
2022-08-25T19:44:16.080Z,100705.41
2022-08-25T19:46:45.231Z,100709.63
2022-08-25T19:49:22.478Z,100715.75
2022-08-25T19:51:53.217Z,100718.09
2022-08-25T19:54:34.269Z,100720.19
2022-08-25T19:57:06.444Z,100720.59
2022-08-25T19:59:43.122Z,100720.81
2022-08-25T20:02:16.829Z,100723.56
2022-08-25T20:04:50.003Z,100727.38
2022-08-25T20:07:23.943Z,100734.13
2022-08-25T20:09:54.304Z,100747.19
2022-08-25T20:12:23.783Z,100741.28
2022-08-25T20:14:52.226Z,100750.13
2022-08-25T20:17:24.295Z,100746.94
2022-08-25T20:19:59.610Z,100753.03
2022-08-25T20:22:29.980Z,100756.41
2022-08-25T20:25:02.774Z,100758.31
2022-08-25T20:27:39.741Z,100757.84
2022-08-25T20:30:27.765Z,100764.63
2022-08-25T20:32:57.095Z,100772.19
2022-08-25T20:35:27.456Z,100760.56
2022-08-25T20:37:59.360Z,100771.53
2022-08-25T20:40:30.127Z,100761.84
2022-08-25T20:43:03.027Z,100770.47
2022-08-25T20:45:30.446Z,100769.16
2022-08-25T20:47:57.439Z,100779.53
2022-08-25T20:50:25.306Z,100768.13
2022-08-25T20:52:56.689Z,100778.22
2022-08-25T20:55:25.052Z,100773.16
2022-08-25T20:57:53.629Z,100774.19
2022-08-25T21:00:23.612Z,100769.94
2022-08-25T21:02:52.947Z,100784.72
2022-08-25T21:05:20.710Z,100781.78
2022-08-25T21:07:48.411Z,100783.00
2022-08-25T21:10:16.222Z,100788.06
2022-08-25T21:12:45.075Z,100786.09
2022-08-25T21:15:17.028Z,100784.38
2022-08-25T21:17:50.663Z,100784.97
2022-08-25T21:20:18.905Z,100772.72
2022-08-25T21:22:55.790Z,100777.75
2022-08-25T21:25:24.163Z,100783.66
2022-08-25T21:27:52.568Z,100780.47
2022-08-25T21:30:19.703Z,100778.97
2022-08-25T21:32:52.886Z,100785.91
2022-08-25T21:35:23.450Z,100773.59
2022-08-25T21:37:53.273Z,100783.94
2022-08-25T21:40:23.667Z,100786.88
2022-08-25T21:42:52.376Z,100784.34
2022-08-25T21:45:20.890Z,100791.91
2022-08-25T21:47:49.035Z,100789.56
2022-08-25T21:50:15.986Z,100789.97
2022-08-25T21:52:42.954Z,100779.84
2022-08-25T21:55:16.054Z,100788.47
2022-08-25T21:57:44.190Z,100787.81
2022-08-25T22:00:13.559Z,100794.53
2022-08-25T22:02:44.051Z,100784.81
2022-08-25T22:05:12.414Z,100787.09
2022-08-25T22:07:43.996Z,100783.03
2022-08-25T22:10:17.795Z,100785.13
2022-08-25T22:12:47.979Z,100785.50
2022-08-25T22:15:16.479Z,100791.19
2022-08-25T22:17:47.892Z,100787.16
2022-08-25T22:20:18.666Z,100788.41
2022-08-25T22:22:46.404Z,100787.09
2022-08-25T22:25:13.865Z,100783.88
2022-08-25T22:27:41.674Z,100787.88
2022-08-25T22:30:09.592Z,100782.78
2022-08-25T22:32:37.130Z,100777.69
2022-08-25T22:35:04.878Z,100777.69
2022-08-25T22:37:31.959Z,100777.03
2022-08-25T22:40:04.321Z,100783.56
2022-08-25T22:42:31.509Z,100787.34
2022-08-25T22:44:58.583Z,100793.22
2022-08-25T22:47:25.560Z,100790.66
2022-08-25T22:49:55.386Z,100791.72
2022-08-25T22:52:22.541Z,100787.28
2022-08-25T22:55:01.163Z,100793.78
2022-08-25T22:57:28.474Z,100788.53
2022-08-25T22:59:56.719Z,100789.75
2022-08-25T23:02:23.741Z,100798.34
2022-08-25T23:04:50.917Z,100791.56
2022-08-25T23:07:24.030Z,100790.91
2022-08-25T23:09:51.540Z,100794.03
2022-08-25T23:12:18.588Z,100792.03
2022-08-25T23:14:46.040Z,100794.97
2022-08-25T23:17:13.822Z,100791.94
2022-08-25T23:19:40.818Z,100787.69
2022-08-25T23:22:10.895Z,100788.06
2022-08-25T23:24:45.927Z,100781.97
2022-08-25T23:27:17.079Z,100788.88
2022-08-25T23:29:48.737Z,100783.56
2022-08-25T23:32:18.995Z,100789.41
2022-08-25T23:34:47.344Z,100775.47
2022-08-25T23:37:16.261Z,100775.88
2022-08-25T23:39:49.508Z,100775.41
2022-08-25T23:42:18.022Z,100773.03
2022-08-25T23:44:45.249Z,100780.97
2022-08-25T23:47:12.420Z,100776.69
2022-08-25T23:49:39.853Z,100776.25
2022-08-25T23:52:07.119Z,100774.72
2022-08-25T23:54:34.151Z,100768.63
2022-08-25T23:57:01.609Z,100764.34
2022-08-25T23:59:28.992Z,100769.84
